Flight Track Log - Related Links

Times and Time Zones

All times are in EDT time to prevent confusion due to time zone crossing. See the TAM3238 flight status page for this flight to view local times or setup timezone preferences in your user account.

Time Position Orientation Groundspeed Altitude Reporting Facility
EDT Latitude Longitude Course Direction KTS MPH feet Rate Location/Type
Fri 05:57:55 PM -23.6230 -46.6470 84° East 122 140  Level FlightAware ADS-B
Fri 05:59:12 PM -23.6230 -46.6460 90° East 122 140  Level FlightAware ADS-B
Fri 06:00:36 PM -23.6230 -46.6470 270° West 122 140  Level FlightAware ADS-B
Fri 06:01:53 PM -23.6230 -46.6460 90° East 122 140  Level FlightAware ADS-B
Fri 06:02:26 PM -23.6240 -46.6600 266° West 122 140  Level FlightAware ADS-B
Fri 06:02:51 PM -23.6230 -46.6470 85° East 122 140  Level FlightAware ADS-B
Fri 06:03:41 PM -23.6240 -46.6600 265° West 122 140  Level FlightAware ADS-B
Fri 06:04:08 PM -23.6230 -46.6460 86° East 122 140  Level FlightAware ADS-B
Fri 06:04:21 PM -23.6240 -46.6600 266° West 122 140  Level FlightAware ADS-B
Fri 06:07:00 PM -23.3514 -46.7530 343° North  Level Estimated
Fri 06:08:00 PM -23.2485 -46.7880 343° North  Level Estimated
Fri 06:09:00 PM -23.1455 -46.8230 343° North  Level Estimated
Fri 06:10:00 PM -23.0426 -46.8579 343° North  Level Estimated
Fri 06:11:00 PM -22.9397 -46.8927 343° North  Level Estimated
Fri 06:12:00 PM -22.8368 -46.9275 343° North  Level Estimated
Fri 06:13:00 PM -22.7339 -46.9623 343° North  Level Estimated
Fri 06:14:00 PM -22.6309 -46.9969 343° North  Level Estimated
Fri 06:15:00 PM -22.5280 -47.0316 343° North  Level Estimated
Fri 06:16:00 PM -22.4250 -47.0662 343° North  Level Estimated
Fri 06:17:00 PM -22.3220 -47.1007 343° North  Level Estimated
Fri 06:18:00 PM -22.2191 -47.1352 343° North  Level Estimated
Fri 06:19:00 PM -22.1161 -47.1696 343° North  Level Estimated
Fri 06:20:00 PM -22.0131 -47.2040 343° North  Level Estimated
Fri 06:21:00 PM -21.9101 -47.2383 343° North  Level Estimated
Fri 06:22:00 PM -21.8071 -47.2726 343° North  Level Estimated
Fri 06:23:00 PM -21.7041 -47.3068 343° North  Level Estimated
Fri 06:24:00 PM -21.6011 -47.3410 343° North  Level Estimated
Fri 06:25:00 PM -21.4981 -47.3751 343° North  Level Estimated
Fri 06:26:00 PM -21.3950 -47.4092 343° North  Level Estimated
Fri 06:27:00 PM -21.2920 -47.4433 343° North  Level Estimated
Fri 06:28:00 PM -21.1889 -47.4772 343° North  Level Estimated
Fri 06:29:00 PM -21.0859 -47.5112 343° North  Level Estimated
Fri 06:30:00 PM -20.9828 -47.5451 343° North  Level Estimated
Fri 06:31:00 PM -20.8798 -47.5789 343° North  Level Estimated
Fri 06:32:00 PM -20.7767 -47.6127 343° North  Level Estimated
Fri 06:33:00 PM -20.6736 -47.6465 343° North  Level Estimated
Fri 06:34:00 PM -20.5705 -47.6802 343° North  Level Estimated
Fri 06:35:00 PM -20.4674 -47.7139 343° North  Level Estimated
Fri 06:36:00 PM -20.3643 -47.7475 343° North  Level Estimated
Fri 06:37:00 PM -20.2612 -47.7811 343° North  Level Estimated
Fri 06:38:00 PM -20.1581 -47.8146 343° North  Level Estimated
Fri 06:39:00 PM -20.0550 -47.8481 343° North  Level Estimated
Fri 06:40:00 PM -19.9519 -47.8815 343° North  Level Estimated
Fri 06:41:00 PM -19.8488 -47.9149 343° North  Level Estimated
Fri 06:42:00 PM -19.7456 -47.9483 343° North  Level Estimated
Fri 06:43:00 PM -19.6425 -47.9816 343° North  Level Estimated
Fri 06:44:00 PM -19.5394 -48.0149 343° North  Level Estimated
Fri 06:45:00 PM -19.4362 -48.0481 343° North  Level Estimated
Fri 06:46:00 PM -19.3330 -48.0813 343° North  Level Estimated
Fri 06:47:00 PM -19.2299 -48.1144 343° North  Level Estimated
Fri 06:48:00 PM -19.1267 -48.1475 343° North  Level Estimated
Fri 06:49:00 PM -19.0235 -48.1806 343° North  Level Estimated
Fri 06:50:00 PM -18.9203 -48.2136 343° North  Level Estimated
Fri 06:51:00 PM -18.8828 -48.2256 343° North  Level Estimated
Fri 06:52:00 PM -18.8828 -48.2256 223° Southwest  Level Estimated
Fri 06:53:00 PM -18.8828 -48.2256 223° Southwest  Level Estimated
Fri 06:54:00 PM -18.8828 -48.2256 223° Southwest  Level Estimated
Fri 06:55:00 PM -18.8828 -48.2256 223° Southwest  Level Estimated
Fri 06:56:00 PM -18.8828 -48.2256 223° Southwest  Level Estimated
Fri 06:57:00 PM -18.8828 -48.2256 223° Southwest  Level Estimated
Fri 06:58:00 PM -18.8828 -48.2256 223° Southwest  Level Estimated
Fri 06:59:00 PM -18.8828 -48.2256 223° Southwest  Level Estimated

Login

Don't have an account? Register now (free) for customized features, flight alerts, and more!